Time;durP1;ratioP1;P1;durP2;ratioP2;P2;SDS_P1;SDS_P2;PMS_P1;PMS_P2;Temp;Humidity;BMP_temperature;BMP_pressure;BME280_temperature;BME280_humidity;BME280_pressure;Samples;Min_cycle;Max_cycle;Signal;HPM_P1;HPM_P2
2020/12/15 00:04:38;;;;;;;9.57;8.57;;;6.70;99.90;;;;;;10250772;29;20236;-80
2020/12/15 00:09:40;;;;;;;9.63;8.67;;;6.80;99.90;;;;;;10214294;29;20724;-79
2020/12/15 00:14:41;;;;;;;9.10;8.10;;;6.90;99.90;;;;;;10207904;29;20240;-80
2020/12/15 00:19:44;;;;;;;8.33;7.63;;;6.90;99.90;;;;;;10231868;29;20204;-80
2020/12/15 00:24:46;;;;;;;9.00;8.10;;;6.80;99.90;;;;;;10226514;29;20231;-81
2020/12/15 00:29:47;;;;;;;7.87;7.07;;;6.80;99.90;;;;;;10240552;29;20228;-80
2020/12/15 00:34:50;;;;;;;7.40;6.70;;;6.80;99.90;;;;;;10213506;29;20232;-79
2020/12/15 00:39:51;;;;;;;6.87;6.27;;;6.90;99.90;;;;;;10213030;29;20292;-79
2020/12/15 00:44:53;;;;;;;6.50;5.90;;;6.90;99.90;;;;;;10211463;29;20237;-80
2020/12/15 00:49:56;;;;;;;6.40;5.70;;;6.90;99.90;;;;;;10219324;29;20225;-80
2020/12/15 00:54:58;;;;;;;7.83;6.83;;;6.90;99.90;;;;;;10219885;29;20319;-79
2020/12/15 01:00:00;;;;;;;6.50;5.77;;;7.00;99.90;;;;;;10251791;28;20244;-80
2020/12/15 01:05:05;;;;;;;7.10;6.17;;;7.00;99.90;;;;;;10250784;29;20256;-80
2020/12/15 01:10:09;;;;;;;5.87;5.30;;;7.10;99.90;;;;;;10212299;29;20221;-79
2020/12/15 01:15:16;;;;;;;6.33;5.60;;;7.10;99.90;;;;;;10232370;29;20261;-80
2020/12/15 01:20:20;;;;;;;6.20;5.20;;;7.10;99.90;;;;;;10243356;29;20205;-79
2020/12/15 01:25:22;;;;;;;5.03;4.53;;;7.20;99.90;;;;;;10259862;28;20282;-79
2020/12/15 01:30:32;;;;;;;5.13;4.63;;;7.20;99.90;;;;;;10244857;29;20765;-80
2020/12/15 01:36:06;;;;;;;4.47;4.07;;;7.20;99.90;;;;;;10261645;28;20647;-82
2020/12/15 01:41:18;;;;;;;7.03;4.53;;;7.20;99.90;;;;;;10253487;29;20271;-78
2020/12/15 01:46:20;;;;;;;4.80;4.40;;;7.30;99.90;;;;;;10232243;28;20304;-78
2020/12/15 01:51:23;;;;;;;4.70;4.10;;;7.30;99.90;;;;;;10198582;29;20224;-78
2020/12/15 01:56:30;;;;;;;4.30;3.90;;;7.40;99.90;;;;;;10244248;28;20221;-80
2020/12/15 02:01:43;;;;;;;4.37;3.93;;;7.40;99.90;;;;;;10220715;29;20203;-80
2020/12/15 02:06:49;;;;;;;4.57;4.17;;;7.50;99.90;;;;;;10207078;29;20224;-82
2020/12/15 02:11:54;;;;;;;4.63;4.23;;;7.50;99.90;;;;;;10226071;29;20300;-80
2020/12/15 02:16:58;;;;;;;4.90;4.40;;;7.50;99.90;;;;;;10228713;29;20286;-82
2020/12/15 02:22:22;;;;;;;6.33;5.70;;;7.50;99.90;;;;;;10262873;29;20690;-80
2020/12/15 02:27:23;;;;;;;5.53;5.03;;;7.60;99.90;;;;;;10243564;29;20205;-82
2020/12/15 02:32:25;;;;;;;6.00;5.40;;;7.60;99.90;;;;;;10223520;29;20237;-80
2020/12/15 02:37:28;;;;;;;4.80;4.33;;;7.70;99.90;;;;;;10224836;29;20625;-78
2020/12/15 02:42:32;;;;;;;5.23;4.80;;;7.70;99.90;;;;;;10280470;29;20247;-80
2020/12/15 02:47:35;;;;;;;4.50;4.00;;;7.60;99.90;;;;;;10216846;29;20212;-82
2020/12/15 02:52:38;;;;;;;5.03;4.63;;;7.60;99.90;;;;;;10216678;29;20225;-80
2020/12/15 02:57:41;;;;;;;4.77;4.37;;;7.70;99.90;;;;;;10201515;29;20205;-80
2020/12/15 03:02:48;;;;;;;4.50;4.20;;;7.70;99.90;;;;;;10217664;29;20742;-82
2020/12/15 03:07:54;;;;;;;6.67;5.97;;;7.80;99.90;;;;;;10217542;29;20209;-82
2020/12/15 03:12:56;;;;;;;5.00;4.60;;;7.80;99.90;;;;;;10201872;29;20236;-81
2020/12/15 03:17:59;;;;;;;6.50;5.77;;;7.90;99.90;;;;;;10242546;29;20344;-81
2020/12/15 03:23:02;;;;;;;5.20;4.70;;;7.90;99.90;;;;;;10242607;28;20225;-82
2020/12/15 03:28:07;;;;;;;5.87;5.27;;;7.90;99.90;;;;;;10242974;29;20197;-82
2020/12/15 03:33:14;;;;;;;5.70;5.20;;;8.00;99.90;;;;;;10255124;28;20224;-81
2020/12/15 03:38:17;;;;;;;7.03;5.60;;;8.00;99.90;;;;;;10258922;29;20668;-81
2020/12/15 03:43:25;;;;;;;6.20;5.60;;;8.10;99.90;;;;;;10241901;28;20641;-79
2020/12/15 03:48:43;;;;;;;5.67;5.07;;;8.10;99.90;;;;;;10196130;29;20186;-79
2020/12/15 03:53:46;;;;;;;8.67;7.53;;;8.10;99.90;;;;;;10161952;29;20229;-79
2020/12/15 03:58:48;;;;;;;7.80;7.00;;;8.20;99.90;;;;;;10162454;29;20213;-79
2020/12/15 04:03:50;;;;;;;9.33;8.37;;;8.20;99.90;;;;;;10177272;29;20218;-79
2020/12/15 04:09:00;;;;;;;8.37;7.57;;;8.20;99.90;;;;;;10194692;29;20212;-79
2020/12/15 04:14:01;;;;;;;8.20;7.40;;;8.20;99.90;;;;;;10197937;29;20716;-78
2020/12/15 04:19:04;;;;;;;6.60;5.93;;;8.20;99.90;;;;;;10236182;28;20204;-79
2020/12/15 04:24:08;;;;;;;7.53;6.83;;;8.20;99.90;;;;;;10266951;28;20216;-80
2020/12/15 04:29:18;;;;;;;8.50;6.33;;;8.20;99.90;;;;;;10267100;29;20288;-79
2020/12/15 04:34:30;;;;;;;6.10;5.60;;;8.20;99.90;;;;;;10257000;28;20239;-80
2020/12/15 04:39:34;;;;;;;6.10;5.60;;;8.10;99.90;;;;;;10259160;29;20295;-79
2020/12/15 04:44:36;;;;;;;7.10;6.17;;;8.10;99.90;;;;;;10249053;28;20216;-79
2020/12/15 04:49:55;;;;;;;7.60;5.77;;;8.20;99.90;;;;;;10257337;29;20694;-80
2020/12/15 04:54:58;;;;;;;8.37;6.37;;;8.20;99.90;;;;;;10235832;29;20288;-78
2020/12/15 05:00:10;;;;;;;5.80;5.30;;;8.20;99.90;;;;;;10236767;29;20197;-79
2020/12/15 05:05:32;;;;;;;5.47;4.90;;;8.20;99.90;;;;;;10250250;28;20247;-78
2020/12/15 05:10:36;;;;;;;5.80;5.20;;;8.30;99.90;;;;;;10234538;29;20241;-78
2020/12/15 05:15:58;;;;;;;5.70;5.00;;;8.20;99.90;;;;;;10224125;29;20283;-79
2020/12/15 05:21:29;;;;;;;5.57;4.23;;;8.20;99.90;;;;;;10228646;29;20211;-79
2020/12/15 05:26:42;;;;;;;5.00;4.20;;;8.10;99.90;;;;;;10247068;29;20231;-78
2020/12/15 05:31:48;;;;;;;5.23;4.70;;;8.10;99.90;;;;;;10236495;28;20221;-79
2020/12/15 05:37:06;;;;;;;6.30;5.37;;;8.00;99.90;;;;;;10236521;29;20209;-78
2020/12/15 05:42:30;;;;;;;5.90;4.63;;;8.10;99.90;;;;;;10252441;28;20209;-77
2020/12/15 05:47:33;;;;;;;5.00;4.60;;;8.10;99.90;;;;;;10225432;29;20227;-77
2020/12/15 05:52:40;;;;;;;5.90;5.03;;;8.20;99.90;;;;;;10252645;28;20229;-77
2020/12/15 05:57:45;;;;;;;6.67;5.33;;;8.20;99.90;;;;;;10255226;29;20267;-77
2020/12/15 06:02:57;;;;;;;5.63;4.97;;;8.20;99.90;;;;;;10237033;28;20223;-78
2020/12/15 06:08:00;;;;;;;5.83;5.23;;;8.30;99.90;;;;;;10232425;29;20276;-78
2020/12/15 06:13:04;;;;;;;6.50;5.90;;;8.30;99.90;;;;;;10214799;29;20770;-79
2020/12/15 06:18:06;;;;;;;6.50;5.90;;;8.30;99.90;;;;;;10215956;29;20207;-77
2020/12/15 06:23:10;;;;;;;7.97;7.17;;;8.30;99.90;;;;;;10229530;29;20214;-77
2020/12/15 06:28:13;;;;;;;6.60;5.40;;;8.20;99.90;;;;;;10240483;29;20627;-77
2020/12/15 06:33:15;;;;;;;5.30;4.80;;;8.20;99.90;;;;;;10235662;28;20224;-77
2020/12/15 06:38:18;;;;;;;5.80;5.30;;;8.20;99.90;;;;;;10241755;29;20259;-77
2020/12/15 06:43:28;;;;;;;6.40;5.30;;;8.30;99.90;;;;;;10222508;29;20229;-77
2020/12/15 06:48:30;;;;;;;6.47;5.87;;;8.30;99.90;;;;;;10172444;29;20202;-77
2020/12/15 06:53:32;;;;;;;6.80;6.20;;;8.30;99.90;;;;;;10178125;29;20591;-77
2020/12/15 06:58:35;;;;;;;9.37;7.33;;;8.30;99.90;;;;;;10242566;29;20287;-77
2020/12/15 07:03:37;;;;;;;7.23;6.10;;;8.30;99.90;;;;;;10240812;28;20575;-77
2020/12/15 07:08:39;;;;;;;8.37;7.47;;;8.20;99.90;;;;;;10250900;29;20192;-77
2020/12/15 07:13:42;;;;;;;8.47;6.50;;;8.20;99.90;;;;;;10249210;28;20224;-77
2020/12/15 07:18:43;;;;;;;8.10;7.27;;;8.20;99.90;;;;;;10227581;29;20637;-78
2020/12/15 07:23:46;;;;;;;7.57;6.87;;;8.20;99.90;;;;;;10216375;28;20221;-77
2020/12/15 07:28:49;;;;;;;6.63;5.93;;;8.20;99.90;;;;;;10226693;29;20197;-79
2020/12/15 07:33:51;;;;;;;6.50;5.90;;;8.20;99.90;;;;;;10254459;28;20225;-79
2020/12/15 07:38:54;;;;;;;8.57;7.00;;;8.30;99.90;;;;;;10237477;29;20215;-80
2020/12/15 07:43:56;;;;;;;8.03;7.30;;;8.30;99.90;;;;;;10217618;29;20236;-80
2020/12/15 07:49:00;;;;;;;10.20;8.60;;;8.40;99.90;;;;;;10248202;29;20208;-81
2020/12/15 07:54:11;;;;;;;11.50;8.90;;;8.40;99.90;;;;;;10249911;28;20222;-80
2020/12/15 07:59:17;;;;;;;9.60;8.60;;;8.40;99.90;;;;;;10238989;29;20205;-79
2020/12/15 08:04:19;;;;;;;9.13;8.23;;;8.40;99.90;;;;;;10256930;28;20216;-80
2020/12/15 08:09:21;;;;;;;8.60;7.70;;;8.40;99.90;;;;;;10226079;29;20212;-80
2020/12/15 08:14:24;;;;;;;8.93;8.03;;;8.40;99.90;;;;;;10258979;28;20584;-79
2020/12/15 08:19:26;;;;;;;14.00;12.60;;;8.40;99.90;;;;;;10266856;29;20193;-78
2020/12/15 08:24:30;;;;;;;10.00;9.10;;;8.50;99.90;;;;;;10258536;29;20238;-80
2020/12/15 08:29:32;;;;;;;8.57;7.70;;;8.50;99.90;;;;;;10252618;29;20284;-80
2020/12/15 08:34:34;;;;;;;7.90;7.10;;;8.60;99.90;;;;;;10243943;29;20268;-81
2020/12/15 08:39:40;;;;;;;8.00;7.20;;;8.60;99.90;;;;;;10245884;29;20197;-81
2020/12/15 08:44:43;;;;;;;7.27;6.60;;;8.70;99.90;;;;;;10243470;28;20216;-80
2020/12/15 08:49:45;;;;;;;7.93;6.77;;;8.70;99.90;;;;;;10227273;29;20721;-80
2020/12/15 08:54:47;;;;;;;7.43;6.73;;;8.80;99.90;;;;;;10221872;29;20235;-80
2020/12/15 08:59:50;;;;;;;7.93;6.50;;;8.80;99.90;;;;;;10224837;29;20304;-81
2020/12/15 09:04:51;;;;;;;8.23;7.20;;;8.80;99.90;;;;;;10235475;28;21148;-79
2020/12/15 09:09:53;;;;;;;7.10;6.40;;;8.90;99.90;;;;;;10246418;29;20216;-80
2020/12/15 09:15:01;;;;;;;7.17;6.53;;;8.90;99.90;;;;;;10241656;29;20224;-80
2020/12/15 09:20:04;;;;;;;9.93;7.77;;;9.00;99.90;;;;;;10247805;29;20228;-80
2020/12/15 09:25:12;;;;;;;8.60;7.70;;;9.00;99.90;;;;;;10246099;28;20223;-81
2020/12/15 09:30:15;;;;;;;9.50;8.60;;;9.10;99.90;;;;;;10246691;29;20216;-80
2020/12/15 09:35:17;;;;;;;9.83;7.90;;;9.20;99.90;;;;;;10247267;28;20235;-79
2020/12/15 09:40:20;;;;;;;8.73;7.93;;;9.30;99.90;;;;;;10253503;29;20212;-79
2020/12/15 09:45:23;;;;;;;9.73;8.60;;;9.30;99.90;;;;;;10240822;28;20239;-79
2020/12/15 09:50:24;;;;;;;8.80;7.90;;;9.40;99.90;;;;;;10249145;29;20224;-82
2020/12/15 09:55:27;;;;;;;8.30;7.17;;;9.40;99.90;;;;;;10254737;28;20227;-79
2020/12/15 10:00:30;;;;;;;7.70;6.60;;;9.50;99.90;;;;;;10252550;29;20203;-80
2020/12/15 10:05:32;;;;;;;8.73;7.93;;;9.50;99.90;;;;;;10255714;28;20250;-79
2020/12/15 10:10:34;;;;;;;9.40;8.40;;;9.60;99.90;;;;;;10238520;29;20243;-79
2020/12/15 10:15:38;;;;;;;10.50;8.27;;;9.60;99.90;;;;;;10243172;28;20283;-80
2020/12/15 10:20:40;;;;;;;9.90;8.37;;;9.70;99.90;;;;;;10253714;28;20284;-80
2020/12/15 10:25:41;;;;;;;9.83;8.30;;;9.70;99.90;;;;;;10254722;28;20236;-81
2020/12/15 10:30:44;;;;;;;9.77;8.77;;;9.80;99.90;;;;;;10241633;29;20355;-79
2020/12/15 10:35:46;;;;;;;10.33;8.33;;;9.90;99.90;;;;;;10232490;28;20232;-81
2020/12/15 10:40:48;;;;;;;10.90;8.33;;;10.00;99.90;;;;;;10245663;29;20231;-81
2020/12/15 10:45:50;;;;;;;9.60;8.70;;;10.10;99.90;;;;;;10229567;29;20225;-81
2020/12/15 10:50:52;;;;;;;11.90;9.37;;;10.20;99.90;;;;;;10246494;29;20357;-83
2020/12/15 10:55:54;;;;;;;14.00;9.00;;;10.20;99.90;;;;;;10220208;29;20213;-82
2020/12/15 11:00:57;;;;;;;9.97;8.90;;;10.30;99.90;;;;;;10236909;29;20202;-80
2020/12/15 11:05:58;;;;;;;12.73;8.90;;;10.30;99.90;;;;;;10236933;29;20255;-82
2020/12/15 11:11:00;;;;;;;9.30;8.13;;;10.30;99.90;;;;;;10241197;29;20220;-82
2020/12/15 11:16:03;;;;;;;13.97;10.30;;;10.30;99.90;;;;;;10218001;29;20220;-82
2020/12/15 11:21:04;;;;;;;13.50;10.00;;;10.30;99.90;;;;;;10221628;29;20195;-82
2020/12/15 11:26:06;;;;;;;9.03;7.93;;;10.30;99.90;;;;;;10215640;29;20287;-81
2020/12/15 11:31:10;;;;;;;10.77;8.80;;;10.40;99.90;;;;;;10227650;29;20232;-80
2020/12/15 11:36:12;;;;;;;10.40;8.30;;;10.40;99.90;;;;;;10249964;29;20244;-81
2020/12/15 11:41:13;;;;;;;9.40;7.80;;;10.40;99.90;;;;;;10252128;29;20205;-79
2020/12/15 11:46:20;;;;;;;12.03;8.50;;;10.40;99.90;;;;;;10246799;28;20232;-81
2020/12/15 11:51:22;;;;;;;9.70;8.60;;;10.40;99.90;;;;;;10242510;29;20216;-81
2020/12/15 11:56:24;;;;;;;9.17;8.27;;;10.50;99.90;;;;;;10239407;28;20303;-79
2020/12/15 12:01:26;;;;;;;11.20;8.50;;;10.50;99.90;;;;;;10230753;29;20201;-80
2020/12/15 12:06:31;;;;;;;12.40;9.70;;;10.50;99.90;;;;;;10192563;29;20316;-79
2020/12/15 12:11:32;;;;;;;10.57;9.40;;;10.60;99.90;;;;;;10195498;29;20228;-80
2020/12/15 12:16:35;;;;;;;9.40;8.50;;;10.60;99.90;;;;;;10212592;29;20220;-79
2020/12/15 12:21:39;;;;;;;11.73;9.17;;;10.60;99.90;;;;;;10236488;29;20215;-80
2020/12/15 12:26:40;;;;;;;10.57;9.50;;;10.70;99.90;;;;;;10228792;29;20221;-81
2020/12/15 12:31:47;;;;;;;10.90;9.70;;;10.70;99.90;;;;;;10217329;29;20225;-81
2020/12/15 12:36:49;;;;;;;11.37;10.00;;;10.70;99.90;;;;;;10229445;29;20248;-81
2020/12/15 12:41:52;;;;;;;13.60;10.10;;;10.70;99.90;;;;;;10229676;29;20194;-80
2020/12/15 12:46:55;;;;;;;5.30;4.80;;;10.70;99.90;;;;;;10241233;29;20239;-80
2020/12/15 12:51:57;;;;;;;8.70;6.20;;;10.70;99.90;;;;;;10240218;29;20268;-80
2020/12/15 12:56:58;;;;;;;8.57;6.93;;;10.70;99.90;;;;;;10241640;29;20193;-81
2020/12/15 13:02:01;;;;;;;12.63;8.00;;;10.50;99.90;;;;;;10241633;28;20201;-78
2020/12/15 13:07:03;;;;;;;8.50;7.70;;;10.30;99.90;;;;;;10257880;29;20200;-80
2020/12/15 13:12:05;;;;;;;10.03;8.10;;;10.30;99.90;;;;;;10257905;28;20247;-79
2020/12/15 13:17:08;;;;;;;12.33;7.43;;;10.40;99.90;;;;;;10233416;29;20263;-80
2020/12/15 13:22:10;;;;;;;9.90;6.83;;;10.40;99.90;;;;;;10225990;28;20217;-80
2020/12/15 13:27:11;;;;;;;11.20;6.80;;;10.60;99.90;;;;;;10237126;29;20662;-79
2020/12/15 13:32:14;;;;;;;6.53;5.93;;;10.80;99.90;;;;;;10226734;28;20697;-81
2020/12/15 13:37:16;;;;;;;6.30;4.97;;;10.90;99.90;;;;;;10309223;23;20325;-79
2020/12/15 13:42:17;;;;;;;5.60;5.10;;;11.10;99.90;;;;;;10302601;28;20192;-80
2020/12/15 13:47:20;;;;;;;6.03;4.03;;;11.20;99.90;;;;;;10284005;28;20926;-80
2020/12/15 13:52:22;;;;;;;4.83;3.80;;;11.40;99.90;;;;;;10312232;28;20238;-80
2020/12/15 13:57:24;;;;;;;3.60;3.30;;;11.50;99.90;;;;;;10316667;28;20282;-80
2020/12/15 14:02:27;;;;;;;4.27;3.67;;;11.60;99.90;;;;;;10295394;28;20196;-80
2020/12/15 14:07:29;;;;;;;4.50;3.33;;;11.70;99.90;;;;;;10299063;28;20218;-80
2020/12/15 14:12:31;;;;;;;3.80;3.50;;;11.70;99.90;;;;;;10287281;28;20223;-80
2020/12/15 14:17:33;;;;;;;5.20;4.40;;;11.70;99.90;;;;;;10270458;28;20223;-80
2020/12/15 14:22:35;;;;;;;4.77;4.20;;;11.70;99.90;;;;;;10258097;28;20192;-79
2020/12/15 14:27:39;;;;;;;3.90;3.50;;;11.80;99.90;;;;;;10252858;28;20688;-80
2020/12/15 14:32:42;;;;;;;5.83;3.73;;;11.80;99.90;;;;;;10289961;28;20227;-80
2020/12/15 14:37:45;;;;;;;4.40;4.00;;;11.80;99.90;;;;;;10262672;28;20188;-80
2020/12/15 14:42:47;;;;;;;4.83;2.97;;;11.80;99.90;;;;;;10251607;28;20204;-80
2020/12/15 14:47:49;;;;;;;3.13;2.83;;;11.80;99.90;;;;;;10268074;28;20200;-80
2020/12/15 14:52:51;;;;;;;2.17;2.07;;;11.80;99.90;;;;;;10283070;28;20219;-80
2020/12/15 14:57:53;;;;;;;2.70;2.50;;;11.80;99.90;;;;;;10285803;28;20259;-80
2020/12/15 15:02:55;;;;;;;2.93;2.63;;;11.80;99.90;;;;;;10290656;28;20195;-80
2020/12/15 15:07:57;;;;;;;4.37;3.70;;;11.80;99.90;;;;;;10292803;28;20230;-80
2020/12/15 15:12:59;;;;;;;2.60;2.37;;;11.70;99.90;;;;;;10319084;28;20880;-80
2020/12/15 15:18:01;;;;;;;3.37;2.67;;;11.70;99.90;;;;;;10271902;28;20215;-80
2020/12/15 15:23:03;;;;;;;2.70;2.50;;;11.70;99.90;;;;;;10275101;28;20285;-80
2020/12/15 15:28:05;;;;;;;3.90;3.20;;;11.70;99.90;;;;;;10320437;28;20230;-80
2020/12/15 15:33:07;;;;;;;2.67;2.47;;;11.70;99.90;;;;;;10298586;28;20254;-79
2020/12/15 15:38:09;;;;;;;3.20;3.00;;;11.60;99.90;;;;;;10291113;28;20200;-80
2020/12/15 15:43:11;;;;;;;3.00;2.70;;;11.60;99.90;;;;;;10319570;28;20269;-80
2020/12/15 15:48:13;;;;;;;4.03;3.70;;;11.50;99.90;;;;;;10274890;28;20663;-79
2020/12/15 15:53:15;;;;;;;4.00;3.43;;;11.40;99.90;;;;;;10313594;28;20270;-80
2020/12/15 15:58:17;;;;;;;2.73;2.53;;;11.40;99.90;;;;;;10286616;28;20239;-80
2020/12/15 16:03:19;;;;;;;2.60;2.40;;;11.30;99.90;;;;;;10270562;28;20223;-80
2020/12/15 16:08:21;;;;;;;1.93;1.77;;;11.20;99.90;;;;;;10277317;28;20220;-80
2020/12/15 16:13:23;;;;;;;2.03;1.80;;;11.10;99.90;;;;;;10244570;28;20223;-80
2020/12/15 16:18:27;;;;;;;2.17;2.00;;;11.10;99.90;;;;;;10254640;28;20254;-79
2020/12/15 16:23:29;;;;;;;4.60;1.90;;;11.10;99.90;;;;;;10279258;28;20231;-80
2020/12/15 16:28:31;;;;;;;4.70;4.20;;;11.10;99.90;;;;;;10273407;28;20197;-82
2020/12/15 16:33:51;;;;;;;;;;;;;;;;;;;;;
2020/12/15 16:39:15;;;;;;;4.63;4.23;;;11.00;99.90;;;;;;10267614;28;20200;-82
2020/12/15 16:44:18;;;;;;;6.83;5.60;;;11.00;99.90;;;;;;10277992;28;20303;-80
2020/12/15 16:49:20;;;;;;;5.40;4.90;;;10.90;99.90;;;;;;10258783;28;20227;-80
2020/12/15 16:54:23;;;;;;;2.77;2.50;;;11.00;99.90;;;;;;10246476;28;20227;-80
2020/12/15 16:59:30;;;;;;;3.50;2.50;;;10.90;99.90;;;;;;10258121;28;20204;-82
2020/12/15 17:04:32;;;;;;;2.23;2.13;;;10.90;99.90;;;;;;10264994;28;20254;-80
2020/12/15 17:09:34;;;;;;;2.30;2.10;;;10.90;99.90;;;;;;10278993;28;20207;-80
2020/12/15 17:14:35;;;;;;;3.33;3.03;;;11.00;99.90;;;;;;10283485;28;20264;-81
2020/12/15 17:19:38;;;;;;;2.40;2.23;;;11.00;99.90;;;;;;10256461;28;20204;-81
2020/12/15 17:24:40;;;;;;;2.73;2.63;;;10.90;99.90;;;;;;10287441;28;20220;-81
2020/12/15 17:29:41;;;;;;;2.93;2.73;;;10.90;99.90;;;;;;10282933;28;20223;-81
2020/12/15 17:34:44;;;;;;;3.43;3.13;;;10.90;99.90;;;;;;10304567;28;20230;-81
2020/12/15 17:39:46;;;;;;;4.00;3.40;;;11.00;99.90;;;;;;10293828;28;20204;-81
2020/12/15 17:44:47;;;;;;;3.93;3.60;;;11.00;99.90;;;;;;10284400;28;20226;-81
2020/12/15 17:49:50;;;;;;;4.30;3.90;;;10.90;99.90;;;;;;10273897;28;20267;-82
2020/12/15 18:00:22;;;;;;;6.93;4.83;;;10.90;99.90;;;;;;10296667;28;20253;-81
2020/12/15 18:05:26;;;;;;;9.17;5.40;;;10.80;99.90;;;;;;10286363;28;20219;-81
2020/12/15 18:10:29;;;;;;;7.47;5.40;;;10.70;99.90;;;;;;10298585;28;20253;-81
2020/12/15 18:15:31;;;;;;;4.67;4.13;;;10.70;99.90;;;;;;10281772;28;20220;-82
2020/12/15 18:20:34;;;;;;;5.70;5.30;;;10.70;99.90;;;;;;10281898;28;20232;-82
2020/12/15 18:25:38;;;;;;;4.97;4.57;;;10.60;99.90;;;;;;10280456;28;20299;-82
2020/12/15 18:30:40;;;;;;;7.97;5.77;;;10.60;99.90;;;;;;10318958;28;20218;-82
2020/12/15 18:35:45;;;;;;;6.10;5.10;;;10.60;99.90;;;;;;10237637;28;20769;-82
2020/12/15 18:40:47;;;;;;;6.50;4.53;;;10.60;99.90;;;;;;10266397;28;20195;-81
2020/12/15 18:45:48;;;;;;;5.20;4.77;;;10.60;99.90;;;;;;10260502;28;20229;-81
2020/12/15 18:50:51;;;;;;;5.73;5.20;;;10.60;99.90;;;;;;10259741;28;20220;-79
2020/12/15 18:55:57;;;;;;;4.97;4.50;;;10.60;99.90;;;;;;10274970;28;20247;-78
2020/12/15 19:00:58;;;;;;;8.90;8.03;;;10.60;99.90;;;;;;10268813;28;20196;-79
2020/12/15 19:06:01;;;;;;;8.70;7.80;;;10.60;99.90;;;;;;10262533;28;20228;-78
2020/12/15 19:11:03;;;;;;;8.53;7.80;;;10.50;99.90;;;;;;10269119;28;20272;-78
2020/12/15 19:16:05;;;;;;;8.33;7.53;;;10.50;99.90;;;;;;10265358;28;20223;-79
2020/12/15 19:21:07;;;;;;;7.80;7.20;;;10.50;99.90;;;;;;10281390;28;20251;-79
2020/12/15 19:26:09;;;;;;;6.70;6.10;;;10.50;99.90;;;;;;10278085;28;20220;-79
2020/12/15 19:31:14;;;;;;;6.30;5.73;;;10.40;99.90;;;;;;10284300;28;20216;-79
2020/12/15 19:36:16;;;;;;;5.93;5.40;;;10.40;99.90;;;;;;10295225;23;20635;-77
2020/12/15 19:41:18;;;;;;;24.60;16.10;;;10.30;99.90;;;;;;10261546;28;20238;-78
2020/12/15 19:46:20;;;;;;;11.13;9.23;;;10.20;99.90;;;;;;10299340;28;20228;-79
2020/12/15 19:51:23;;;;;;;10.40;9.40;;;10.10;99.90;;;;;;10304500;28;20230;-79
2020/12/15 19:56:25;;;;;;;11.50;8.80;;;10.10;99.90;;;;;;10305466;28;20310;-78
2020/12/15 20:01:32;;;;;;;22.33;20.03;;;10.00;99.90;;;;;;10303176;28;20210;-79
2020/12/15 20:06:35;;;;;;;10.10;9.10;;;9.90;99.90;;;;;;10290045;28;20309;-78
2020/12/15 20:11:37;;;;;;;15.43;14.10;;;9.80;99.90;;;;;;10292743;28;20639;-78
2020/12/15 20:16:39;;;;;;;9.57;8.77;;;9.70;99.90;;;;;;10272738;28;20222;-78
2020/12/15 20:21:46;;;;;;;9.40;8.60;;;9.60;99.90;;;;;;10312603;28;20191;-78
2020/12/15 20:26:57;;;;;;;7.60;6.90;;;9.50;99.90;;;;;;10310153;28;20231;-78
2020/12/15 20:31:58;;;;;;;8.03;7.33;;;9.40;99.90;;;;;;10329926;28;20577;-78
2020/12/15 20:37:06;;;;;;;8.33;7.63;;;9.40;99.90;;;;;;10327117;28;20235;-79
2020/12/15 20:42:09;;;;;;;8.80;8.10;;;9.30;99.90;;;;;;10326909;28;20207;-78
2020/12/15 20:47:11;;;;;;;7.43;6.83;;;9.20;99.90;;;;;;10326972;28;20298;-79
2020/12/15 20:52:14;;;;;;;8.00;7.40;;;9.20;99.90;;;;;;10313789;28;20211;-80
2020/12/15 20:57:17;;;;;;;8.77;8.00;;;9.20;99.90;;;;;;10334148;28;20215;-78
2020/12/15 21:02:25;;;;;;;8.80;8.00;;;9.20;99.90;;;;;;10338564;28;20204;-78
2020/12/15 21:07:27;;;;;;;8.87;8.07;;;9.20;99.90;;;;;;10323438;28;20863;-78
2020/12/15 21:12:29;;;;;;;8.20;7.50;;;9.20;99.90;;;;;;10342852;28;20686;-79
2020/12/15 21:17:31;;;;;;;8.50;7.70;;;9.20;99.90;;;;;;10321279;28;20227;-80
2020/12/15 21:22:51;;;;;;;8.50;7.73;;;9.20;99.90;;;;;;10304845;28;20180;-79
2020/12/15 21:27:53;;;;;;;8.03;7.27;;;9.20;99.90;;;;;;10307685;28;20704;-81
2020/12/15 21:32:55;;;;;;;12.00;8.40;;;9.20;99.90;;;;;;10325528;28;20226;-79
2020/12/15 21:37:58;;;;;;;8.30;7.60;;;9.10;99.90;;;;;;10316325;28;20211;-82
2020/12/15 21:42:59;;;;;;;10.23;9.23;;;9.10;99.90;;;;;;10337424;28;20632;-81
2020/12/15 21:48:10;;;;;;;9.17;8.37;;;9.00;99.90;;;;;;10278134;28;20675;-81
2020/12/15 21:53:13;;;;;;;9.00;8.20;;;9.10;99.90;;;;;;10346452;28;20301;-81
2020/12/15 21:58:14;;;;;;;9.10;8.20;;;9.10;99.90;;;;;;10343098;28;20718;-79
2020/12/15 22:03:16;;;;;;;9.17;8.37;;;9.10;99.90;;;;;;10353193;28;20240;-79
2020/12/15 22:08:18;;;;;;;9.93;8.90;;;9.20;99.90;;;;;;10310204;28;20210;-80
2020/12/15 22:13:20;;;;;;;9.77;8.93;;;9.20;99.90;;;;;;10330127;28;20269;-80
2020/12/15 22:18:27;;;;;;;10.33;9.20;;;9.20;99.90;;;;;;10295276;28;20243;-81
2020/12/15 22:23:30;;;;;;;10.00;9.00;;;9.30;99.90;;;;;;10305477;28;20229;-80
2020/12/15 22:28:35;;;;;;;9.87;8.87;;;9.40;99.90;;;;;;10300885;28;20207;-81
2020/12/15 22:33:40;;;;;;;8.87;8.07;;;9.40;99.90;;;;;;10330563;28;20655;-80
2020/12/15 22:38:42;;;;;;;9.93;8.90;;;9.50;99.90;;;;;;10332476;28;20649;-80
2020/12/15 22:43:46;;;;;;;10.03;9.10;;;9.50;99.90;;;;;;10330814;28;20742;-79
2020/12/15 22:48:47;;;;;;;10.33;9.03;;;9.50;99.90;;;;;;10316000;28;20289;-80
2020/12/15 22:53:50;;;;;;;9.10;8.20;;;9.50;99.90;;;;;;10314616;28;20281;-79
2020/12/15 22:58:52;;;;;;;10.53;9.43;;;9.50;99.90;;;;;;10329479;28;20290;-80
2020/12/15 23:03:53;;;;;;;9.37;8.57;;;9.50;99.90;;;;;;10328603;28;20219;-79
2020/12/15 23:08:56;;;;;;;8.90;8.00;;;9.50;99.90;;;;;;10311494;28;20203;-80
2020/12/15 23:13:58;;;;;;;8.37;7.67;;;9.50;99.90;;;;;;10273888;28;20535;-81
2020/12/15 23:18:59;;;;;;;7.27;6.60;;;9.60;99.90;;;;;;10271015;28;20238;-81
2020/12/15 23:24:02;;;;;;;10.50;7.60;;;9.60;99.90;;;;;;10275246;28;20305;-79
2020/12/15 23:29:04;;;;;;;7.63;6.93;;;9.60;99.90;;;;;;10327204;28;20238;-80
2020/12/15 23:34:05;;;;;;;7.40;6.70;;;9.60;99.90;;;;;;10298613;28;20235;-81
2020/12/15 23:39:08;;;;;;;7.27;6.57;;;9.50;99.90;;;;;;10273127;28;20208;-79
2020/12/15 23:44:09;;;;;;;8.47;7.60;;;9.40;99.90;;;;;;10289949;28;20231;-80
2020/12/15 23:49:11;;;;;;;8.27;7.40;;;9.30;99.90;;;;;;10280711;28;20203;-80
2020/12/15 23:54:14;;;;;;;8.27;7.57;;;9.30;99.90;;;;;;10317286;28;20253;-81
2020/12/15 23:59:15;;;;;;;9.10;8.20;;;9.20;99.90;;;;;;10295066;28;20243;-80
